createdAt,value
2023-04-10T00:10:01.203Z,9.36
2023-04-10T00:20:08.057Z,9.29
2023-04-10T00:30:12.169Z,9.30
2023-04-10T00:40:14.660Z,9.49
2023-04-10T00:50:18.505Z,9.30
2023-04-10T01:00:23.202Z,9.49
2023-04-10T01:10:40.629Z,9.35
2023-04-10T01:20:44.604Z,9.37
2023-04-10T01:30:49.055Z,9.38
2023-04-10T01:41:06.537Z,9.49
2023-04-10T01:51:10.450Z,9.44
2023-04-10T02:01:26.643Z,9.41
2023-04-10T02:11:48.599Z,9.19
2023-04-10T02:21:54.588Z,8.83
2023-04-10T02:31:57.586Z,8.83
2023-04-10T02:42:01.367Z,8.70
2023-04-10T02:52:03.797Z,8.52
2023-04-10T03:02:07.865Z,8.22
2023-04-10T03:12:10.381Z,8.24
2023-04-10T03:22:14.174Z,7.86
2023-04-10T03:32:18.255Z,7.83
2023-04-10T03:42:21.998Z,7.88
2023-04-10T03:52:24.737Z,7.84
2023-04-10T04:02:28.635Z,7.95
2023-04-10T04:12:31.128Z,7.63
2023-04-10T04:22:34.871Z,7.55
2023-04-10T04:32:37.311Z,7.65
2023-04-10T04:42:41.092Z,7.80
2023-04-10T04:52:44.500Z,7.85
2023-04-10T05:02:52.052Z,7.85
2023-04-10T05:12:54.600Z,7.82
2023-04-10T05:22:58.841Z,7.78
2023-04-10T05:33:01.292Z,7.76
2023-04-10T05:43:05.163Z,7.86
2023-04-10T05:53:11.083Z,7.96
2023-04-10T06:03:14.979Z,8.02
2023-04-10T06:13:17.520Z,8.15
2023-04-10T06:23:21.316Z,8.19
2023-04-10T06:33:26.228Z,8.27
2023-04-10T06:43:31.820Z,8.54
2023-04-10T06:53:34.300Z,8.78
2023-04-10T07:03:38.347Z,9.03
2023-04-10T07:13:41.252Z,9.20
2023-04-10T07:23:45.084Z,9.43
2023-04-10T07:34:02.541Z,9.40
2023-04-10T07:44:09.376Z,9.81
2023-04-10T07:54:11.894Z,10.00
2023-04-10T08:04:15.841Z,10.29
2023-04-10T08:14:21.934Z,10.71
2023-04-10T08:24:25.725Z,10.96
2023-04-10T08:34:28.166Z,11.36
2023-04-10T08:44:31.926Z,11.59
2023-04-10T08:54:35.302Z,11.87
2023-04-10T09:04:39.485Z,12.29
2023-04-10T09:14:42.791Z,12.50
2023-04-10T09:24:47.416Z,12.98
2023-04-10T09:34:54.589Z,13.32
2023-04-10T09:44:58.375Z,13.72
2023-04-10T09:55:01.860Z,14.21
2023-04-10T10:05:06.322Z,14.38
2023-04-10T10:15:15.737Z,14.98
2023-04-10T10:25:20.565Z,15.30
2023-04-10T10:35:25.154Z,15.44
2023-04-10T10:45:35.608Z,16.09
2023-04-10T10:55:40.899Z,15.89
2023-04-10T11:05:51.603Z,16.43
2023-04-10T11:15:56.422Z,16.92
2023-04-10T11:26:00.374Z,17.91
2023-04-10T11:36:18.500Z,18.28
2023-04-10T11:46:22.536Z,18.28
2023-04-10T11:56:25.334Z,18.46
2023-04-10T12:06:29.450Z,18.91
2023-04-10T12:16:33.997Z,18.83
2023-04-10T12:26:37.854Z,19.12
2023-04-10T12:36:40.411Z,19.47
2023-04-10T12:46:44.513Z,19.13
2023-04-10T12:56:50.472Z,19.07
2023-04-10T13:06:54.289Z,19.73
2023-04-10T13:16:56.768Z,19.50
2023-04-10T13:27:01.408Z,19.43
2023-04-10T13:37:04.186Z,19.79
2023-04-10T13:47:08.166Z,19.65
2023-04-10T13:57:10.699Z,18.90
2023-04-10T14:07:14.553Z,18.88
2023-04-10T14:17:17.073Z,18.98
2023-04-10T14:27:20.983Z,19.38
2023-04-10T14:37:25.460Z,19.32
2023-04-10T14:47:29.330Z,19.21
2023-04-10T14:57:33.531Z,19.14
2023-04-10T15:07:37.307Z,19.47
2023-04-10T15:17:43.282Z,19.08
2023-04-10T15:27:47.279Z,19.10
2023-04-10T15:37:49.770Z,18.68
2023-04-10T15:47:53.657Z,18.54
2023-04-10T15:57:58.978Z,18.41
2023-04-10T16:08:17.382Z,18.03
2023-04-10T16:18:21.301Z,18.01
2023-04-10T16:28:25.962Z,17.89
2023-04-10T16:38:29.844Z,17.84
2023-04-10T16:48:33.598Z,17.58
2023-04-10T16:58:40.993Z,17.36
2023-04-10T17:08:43.542Z,17.22
2023-04-10T17:18:47.420Z,17.07
2023-04-10T17:28:50.197Z,16.97
2023-04-10T17:38:54.255Z,16.85
2023-04-10T17:49:01.159Z,16.63
2023-04-10T17:59:05.424Z,16.57
2023-04-10T18:09:08.021Z,16.32
2023-04-10T18:19:11.807Z,16.34
2023-04-10T18:29:14.249Z,16.14
2023-04-10T18:39:18.078Z,15.94
2023-04-10T18:49:20.633Z,15.93
2023-04-10T18:59:24.464Z,16.06
2023-04-10T19:09:28.572Z,15.93
2023-04-10T19:19:32.443Z,15.94
2023-04-10T19:29:34.968Z,15.79
2023-04-10T19:39:38.769Z,15.76
2023-04-10T19:49:41.454Z,15.62
2023-04-10T19:59:45.284Z,15.52
2023-04-10T20:09:47.861Z,15.50
2023-04-10T20:19:51.713Z,15.39
2023-04-10T20:29:54.380Z,15.52
2023-04-10T20:39:58.825Z,15.42
2023-04-10T20:50:01.532Z,15.44
2023-04-10T21:00:05.785Z,15.31
2023-04-10T21:10:11.294Z,15.11
2023-04-10T21:20:15.403Z,15.01
2023-04-10T21:30:21.903Z,15.02
2023-04-10T21:40:34.067Z,15.09
2023-04-10T21:50:36.734Z,15.07
2023-04-10T22:00:41.482Z,14.86
2023-04-10T22:10:45.420Z,15.03
2023-04-10T22:20:49.261Z,14.82
2023-04-10T22:30:55.876Z,14.70
2023-04-10T22:40:59.804Z,14.62
2023-04-10T22:51:02.285Z,14.51
2023-04-10T23:01:06.451Z,14.54
2023-04-10T23:11:12.467Z,14.41
2023-04-10T23:21:16.348Z,14.46
2023-04-10T23:31:22.313Z,14.64
2023-04-10T23:41:26.195Z,14.46
2023-04-10T23:51:31.880Z,14.53
